Time;durP1;ratioP1;P1;durP2;ratioP2;P2;SDS_P1;SDS_P2;PMS_P1;PMS_P2;Temp;Humidity;BMP_temperature;BMP_pressure;BME280_temperature;BME280_humidity;BME280_pressure;Samples;Min_cycle;Max_cycle;Signal;HPM_P1;HPM_P2
2023/04/08 00:01:24;;;;;;;118.27;9.57;;;;;;;;;;5017071;28;20646;-54
2023/04/08 00:03:49;;;;;;;145.48;10.23;;;;;;;;;;5020713;28;20365;-55
2023/04/08 00:06:15;;;;;;;238.20;12.23;;;;;;;;;;5017481;28;20156;-57
2023/04/08 00:08:40;;;;;;;177.52;10.93;;;;;;;;;;5017454;28;20359;-55
2023/04/08 00:11:05;;;;;;;137.88;8.63;;;;;;;;;;5017394;28;20091;-56
2023/04/08 00:13:31;;;;;;;176.93;10.52;;;;;;;;;;5017564;28;20489;-56
2023/04/08 00:15:56;;;;;;;163.02;10.32;;;;;;;;;;5014382;28;20049;-58
2023/04/08 00:18:21;;;;;;;174.10;10.27;;;;;;;;;;5015867;28;20065;-57
2023/04/08 00:20:47;;;;;;;189.63;10.73;;;;;;;;;;5016317;28;20026;-58
2023/04/08 00:23:12;;;;;;;161.43;10.00;;;;;;;;;;5014228;28;20248;-57
2023/04/08 00:25:37;;;;;;;209.25;10.73;;;;;;;;;;5017011;28;20252;-58
2023/04/08 00:28:02;;;;;;;191.02;10.20;;;;;;;;;;5017077;28;20030;-56
2023/04/08 00:30:28;;;;;;;160.70;9.35;;;;;;;;;;5014515;28;20034;-58
2023/04/08 00:32:54;;;;;;;144.55;8.70;;;;;;;;;;5019067;28;20025;-55
2023/04/08 00:35:19;;;;;;;162.88;9.07;;;;;;;;;;5021013;28;20025;-59
2023/04/08 00:37:44;;;;;;;124.95;8.45;;;;;;;;;;5016917;28;20105;-56
2023/04/08 00:40:10;;;;;;;147.27;8.00;;;;;;;;;;5016745;28;20025;-55
2023/04/08 00:42:35;;;;;;;154.80;8.65;;;;;;;;;;5015230;28;20025;-55
2023/04/08 00:45:00;;;;;;;162.05;9.50;;;;;;;;;;5015932;28;20029;-57
2023/04/08 00:47:26;;;;;;;122.25;8.30;;;;;;;;;;5016248;28;20042;-58
2023/04/08 00:49:51;;;;;;;174.38;8.95;;;;;;;;;;5015167;28;20509;-57
2023/04/08 00:52:16;;;;;;;180.07;9.65;;;;;;;;;;5016319;28;20075;-57
2023/04/08 00:54:41;;;;;;;178.50;8.60;;;;;;;;;;5018206;28;20060;-55
2023/04/08 00:57:07;;;;;;;153.98;8.07;;;;;;;;;;5016787;28;20087;-57
2023/04/08 00:59:33;;;;;;;152.32;8.98;;;;;;;;;;5018438;28;20702;-54
2023/04/08 01:02:05;;;;;;;153.30;8.55;;;;;;;;;;5014567;28;20038;-55
2023/04/08 01:04:37;;;;;;;163.32;10.57;;;;;;;;;;5015027;28;20029;-58
2023/04/08 01:07:07;;;;;;;169.60;10.48;;;;;;;;;;5015790;28;20088;-55
2023/04/08 01:09:34;;;;;;;199.45;10.55;;;;;;;;;;5016829;28;20017;-55
2023/04/08 01:12:02;;;;;;;144.27;9.27;;;;;;;;;;5016917;28;20432;-55
2023/04/08 01:14:28;;;;;;;139.30;9.15;;;;;;;;;;5017373;28;20021;-55
2023/04/08 01:16:57;;;;;;;168.23;9.90;;;;;;;;;;5016735;28;20037;-55
2023/04/08 01:19:26;;;;;;;150.48;9.68;;;;;;;;;;5019134;28;20027;-58
2023/04/08 01:21:53;;;;;;;185.45;10.98;;;;;;;;;;5015539;28;20843;-57
2023/04/08 01:24:29;;;;;;;129.95;9.82;;;;;;;;;;5018064;28;20034;-58
2023/04/08 01:26:56;;;;;;;188.07;10.27;;;;;;;;;;5015767;28;20029;-59
2023/04/08 01:29:21;;;;;;;161.30;10.82;;;;;;;;;;5015143;28;20029;-58
2023/04/08 01:31:47;;;;;;;163.38;10.13;;;;;;;;;;5015667;28;20040;-54
2023/04/08 01:34:14;;;;;;;182.52;10.32;;;;;;;;;;5016981;28;20675;-56
2023/04/08 01:36:40;;;;;;;189.90;11.27;;;;;;;;;;5017113;28;20124;-56
2023/04/08 01:39:06;;;;;;;180.30;11.40;;;;;;;;;;5015398;28;20076;-55
2023/04/08 01:41:33;;;;;;;160.30;10.07;;;;;;;;;;5014149;28;20034;-55
2023/04/08 01:43:58;;;;;;;153.65;9.77;;;;;;;;;;5016605;28;20043;-57
2023/04/08 01:46:24;;;;;;;207.05;12.10;;;;;;;;;;5015927;28;20046;-57
2023/04/08 01:48:50;;;;;;;146.93;9.60;;;;;;;;;;5017461;28;20021;-57
2023/04/08 01:51:15;;;;;;;140.93;8.80;;;;;;;;;;5020640;28;20525;-58
2023/04/08 01:53:42;;;;;;;177.85;10.23;;;;;;;;;;5015297;28;20060;-56
2023/04/08 01:56:10;;;;;;;218.85;10.82;;;;;;;;;;5018202;28;20148;-57
2023/04/08 01:58:40;;;;;;;155.07;9.43;;;;;;;;;;5016248;28;20731;-55
2023/04/08 02:01:10;;;;;;;159.25;10.00;;;;;;;;;;5014816;28;20033;-59
2023/04/08 02:03:35;;;;;;;165.10;10.00;;;;;;;;;;5014430;28;20017;-57
2023/04/08 02:06:01;;;;;;;148.10;9.20;;;;;;;;;;5016259;28;20032;-58
2023/04/08 02:08:26;;;;;;;149.98;9.00;;;;;;;;;;5014309;28;20045;-57
2023/04/08 02:10:51;;;;;;;173.98;10.35;;;;;;;;;;5015909;28;20158;-57
2023/04/08 02:13:17;;;;;;;153.68;10.02;;;;;;;;;;5017417;28;20543;-56
2023/04/08 02:15:46;;;;;;;170.23;10.25;;;;;;;;;;5017206;28;20097;-57
2023/04/08 02:18:15;;;;;;;201.02;11.05;;;;;;;;;;5015342;28;20029;-55
2023/04/08 02:20:47;;;;;;;166.13;10.30;;;;;;;;;;5016354;28;20138;-55
2023/04/08 02:23:15;;;;;;;199.68;10.52;;;;;;;;;;5016939;28;20705;-57
2023/04/08 02:25:41;;;;;;;173.70;10.57;;;;;;;;;;5018575;28;20531;-54
2023/04/08 02:28:09;;;;;;;169.50;10.20;;;;;;;;;;5016708;28;20663;-57
2023/04/08 02:30:36;;;;;;;146.70;8.90;;;;;;;;;;5013712;28;20113;-55
2023/04/08 02:33:03;;;;;;;138.00;8.65;;;;;;;;;;5015367;28;20022;-57
2023/04/08 02:35:28;;;;;;;186.13;9.82;;;;;;;;;;5013818;28;20037;-56
2023/04/08 02:37:53;;;;;;;146.02;9.02;;;;;;;;;;5017257;28;20091;-57
2023/04/08 02:40:23;;;;;;;163.52;10.15;;;;;;;;;;5015670;28;20029;-56
2023/04/08 02:42:49;;;;;;;153.52;10.38;;;;;;;;;;5018118;28;20029;-55
2023/04/08 02:45:14;;;;;;;149.48;10.23;;;;;;;;;;5019700;28;20119;-58
2023/04/08 02:47:40;;;;;;;189.23;10.15;;;;;;;;;;5019150;28;20059;-57
2023/04/08 02:50:05;;;;;;;143.93;10.10;;;;;;;;;;5019833;28;20040;-57
2023/04/08 02:52:30;;;;;;;168.95;10.73;;;;;;;;;;5018428;28;20014;-55
2023/04/08 02:54:55;;;;;;;158.37;11.00;;;;;;;;;;5019294;28;20996;-57
2023/04/08 02:57:21;;;;;;;150.20;10.20;;;;;;;;;;5017367;28;21456;-56
2023/04/08 02:59:46;;;;;;;170.07;10.32;;;;;;;;;;5018194;28;21038;-55
2023/04/08 03:02:11;;;;;;;167.00;10.70;;;;;;;;;;5018963;28;20136;-55
2023/04/08 03:04:36;;;;;;;148.37;9.33;;;;;;;;;;5019414;28;20018;-56
2023/04/08 03:07:02;;;;;;;160.88;8.45;;;;;;;;;;5017177;28;20287;-56
2023/04/08 03:09:27;;;;;;;113.80;8.68;;;;;;;;;;5019238;28;20020;-56
2023/04/08 03:11:53;;;;;;;164.00;11.07;;;;;;;;;;5018861;28;20098;-57
2023/04/08 03:14:19;;;;;;;174.55;9.98;;;;;;;;;;5018031;28;20670;-54
2023/04/08 03:16:44;;;;;;;154.70;10.40;;;;;;;;;;5015185;28;20045;-57
2023/04/08 03:19:10;;;;;;;182.10;10.50;;;;;;;;;;5019148;28;20028;-57
2023/04/08 03:21:35;;;;;;;176.82;10.02;;;;;;;;;;5018755;28;20116;-55
2023/04/08 03:24:00;;;;;;;148.23;9.63;;;;;;;;;;5017134;28;20116;-57
2023/04/08 03:26:26;;;;;;;209.73;11.55;;;;;;;;;;5017596;28;20276;-57
2023/04/08 03:28:51;;;;;;;176.50;10.40;;;;;;;;;;5017895;28;20040;-55
2023/04/08 03:31:16;;;;;;;148.35;8.75;;;;;;;;;;5019042;28;20408;-57
2023/04/08 03:33:41;;;;;;;230.63;11.27;;;;;;;;;;5019129;28;20141;-57
2023/04/08 03:36:07;;;;;;;214.35;11.10;;;;;;;;;;5017107;28;20264;-56
2023/04/08 03:38:32;;;;;;;131.98;8.52;;;;;;;;;;5018269;28;20082;-55
2023/04/08 03:40:57;;;;;;;349.27;15.40;;;;;;;;;;5014375;28;20042;-56
2023/04/08 03:43:24;;;;;;;161.17;9.00;;;;;;;;;;5018422;28;20087;-56
2023/04/08 03:45:49;;;;;;;208.10;10.98;;;;;;;;;;5017180;28;20260;-55
2023/04/08 03:48:15;;;;;;;159.82;9.18;;;;;;;;;;5015384;28;20980;-57
2023/04/08 03:50:40;;;;;;;133.73;8.18;;;;;;;;;;5016130;28;20021;-57
2023/04/08 03:53:05;;;;;;;220.17;11.07;;;;;;;;;;5016417;28;20056;-58
2023/04/08 03:55:30;;;;;;;164.63;9.55;;;;;;;;;;5013229;28;20340;-56
2023/04/08 03:57:56;;;;;;;163.93;9.65;;;;;;;;;;5017069;28;20784;-55
2023/04/08 04:00:21;;;;;;;180.93;9.63;;;;;;;;;;5016499;28;20429;-55
2023/04/08 04:02:46;;;;;;;159.23;9.02;;;;;;;;;;5018247;28;20915;-54
2023/04/08 04:05:11;;;;;;;199.85;10.35;;;;;;;;;;5018739;28;20026;-55
2023/04/08 04:07:37;;;;;;;155.65;8.85;;;;;;;;;;5015465;28;20068;-54
2023/04/08 04:10:02;;;;;;;138.80;8.70;;;;;;;;;;5018805;28;20017;-55
2023/04/08 04:12:27;;;;;;;192.75;10.63;;;;;;;;;;5017416;28;20261;-54
2023/04/08 04:14:52;;;;;;;142.47;8.90;;;;;;;;;;5016970;28;20536;-55
2023/04/08 04:17:18;;;;;;;157.70;9.45;;;;;;;;;;5015807;28;21091;-54
2023/04/08 04:19:43;;;;;;;195.33;10.33;;;;;;;;;;5002410;28;20692;-53
2023/04/08 04:22:08;;;;;;;164.57;9.97;;;;;;;;;;5016051;28;20388;-54
2023/04/08 04:24:33;;;;;;;178.50;9.82;;;;;;;;;;5015420;28;20268;-56
2023/04/08 04:26:59;;;;;;;173.55;9.77;;;;;;;;;;5017475;28;20794;-54
2023/04/08 04:29:24;;;;;;;133.80;9.25;;;;;;;;;;5002587;28;20083;-58
2023/04/08 04:31:49;;;;;;;185.20;10.63;;;;;;;;;;5014971;28;20029;-57
2023/04/08 04:34:14;;;;;;;135.82;9.13;;;;;;;;;;5015097;28;20038;-58
2023/04/08 04:36:40;;;;;;;150.07;9.80;;;;;;;;;;5017888;28;20041;-57
2023/04/08 04:39:05;;;;;;;184.55;10.90;;;;;;;;;;5019063;28;20083;-55
2023/04/08 04:41:30;;;;;;;160.60;9.98;;;;;;;;;;5015617;28;20038;-56
2023/04/08 04:43:56;;;;;;;181.85;10.52;;;;;;;;;;5014866;28;20029;-56
2023/04/08 04:46:21;;;;;;;194.97;11.10;;;;;;;;;;5014137;28;20148;-55
2023/04/08 04:48:46;;;;;;;137.32;9.63;;;;;;;;;;5018614;28;20268;-56
2023/04/08 04:51:11;;;;;;;294.58;14.18;;;;;;;;;;5024492;28;20033;-58
2023/04/08 04:53:37;;;;;;;152.32;9.07;;;;;;;;;;5036048;28;20464;-57
2023/04/08 04:56:02;;;;;;;181.07;11.13;;;;;;;;;;5034752;28;20029;-54
2023/04/08 04:58:27;;;;;;;175.88;10.25;;;;;;;;;;5039614;28;20256;-57
2023/04/08 05:00:53;;;;;;;134.05;9.30;;;;;;;;;;5033294;28;20453;-55
2023/04/08 05:03:18;;;;;;;190.63;11.57;;;;;;;;;;5035321;28;20025;-57
2023/04/08 05:05:43;;;;;;;199.98;11.23;;;;;;;;;;5033647;28;20036;-57
2023/04/08 05:08:09;;;;;;;165.30;9.35;;;;;;;;;;5034065;28;20657;-56
2023/04/08 05:10:34;;;;;;;185.27;11.50;;;;;;;;;;5036009;28;20040;-55
2023/04/08 05:12:59;;;;;;;178.88;10.82;;;;;;;;;;5036061;28;20566;-56
2023/04/08 05:15:25;;;;;;;189.85;10.63;;;;;;;;;;5034495;28;20104;-58
2023/04/08 05:17:50;;;;;;;187.25;9.95;;;;;;;;;;5035707;28;20384;-55
2023/04/08 05:20:15;;;;;;;131.55;10.95;;;;;;;;;;5035953;28;20524;-55
2023/04/08 05:22:43;;;;;;;174.18;11.63;;;;;;;;;;5035663;28;20055;-57
2023/04/08 05:25:08;;;;;;;154.80;10.75;;;;;;;;;;5036782;28;20642;-57
2023/04/08 05:27:34;;;;;;;161.93;10.77;;;;;;;;;;5035217;28;20036;-57
2023/04/08 05:29:59;;;;;;;185.57;12.48;;;;;;;;;;5035057;28;20017;-55
2023/04/08 05:32:25;;;;;;;140.68;11.10;;;;;;;;;;5035957;28;20117;-55
2023/04/08 05:34:50;;;;;;;159.30;10.20;;;;;;;;;;5036245;28;20931;-58
2023/04/08 05:37:15;;;;;;;186.43;12.40;;;;;;;;;;5036005;28;20134;-57
2023/04/08 05:39:41;;;;;;;159.98;11.65;;;;;;;;;;5035234;28;20326;-57
2023/04/08 05:42:06;;;;;;;183.40;12.50;;;;;;;;;;5037737;28;20094;-55
2023/04/08 05:44:32;;;;;;;192.02;12.32;;;;;;;;;;5033641;28;20468;-56
2023/04/08 05:46:57;;;;;;;271.60;15.45;;;;;;;;;;5031969;28;20041;-57
2023/04/08 05:49:22;;;;;;;146.68;11.02;;;;;;;;;;5037579;28;20329;-54
2023/04/08 05:51:48;;;;;;;156.63;11.23;;;;;;;;;;5032325;28;20114;-54
2023/04/08 05:54:13;;;;;;;176.45;11.65;;;;;;;;;;5033111;28;20017;-57
2023/04/08 05:56:38;;;;;;;192.10;12.53;;;;;;;;;;5036939;28;20056;-55
2023/04/08 05:59:03;;;;;;;190.90;11.75;;;;;;;;;;5036129;28;20419;-58
2023/04/08 06:01:29;;;;;;;177.85;10.80;;;;;;;;;;5036317;28;20044;-56
2023/04/08 06:03:55;;;;;;;164.77;11.25;;;;;;;;;;5037210;28;20052;-57
2023/04/08 06:06:21;;;;;;;179.48;9.32;;;;;;;;;;5035266;28;20152;-55
2023/04/08 06:08:46;;;;;;;156.90;11.57;;;;;;;;;;5034633;28;20021;-57
2023/04/08 06:11:11;;;;;;;176.20;12.77;;;;;;;;;;5036776;28;20120;-59
2023/04/08 06:13:37;;;;;;;183.35;13.10;;;;;;;;;;5035903;28;20267;-54
2023/04/08 06:16:11;;;;;;;183.80;13.55;;;;;;;;;;5051565;28;20029;-56
2023/04/08 06:18:37;;;;;;;172.35;13.23;;;;;;;;;;5040366;28;20021;-58
2023/04/08 06:21:02;;;;;;;154.68;11.40;;;;;;;;;;5038365;28;20047;-57
2023/04/08 06:23:27;;;;;;;153.63;11.68;;;;;;;;;;5038932;28;20021;-58
2023/04/08 06:25:52;;;;;;;195.80;12.27;;;;;;;;;;5041490;28;20060;-55
2023/04/08 06:28:18;;;;;;;175.70;12.48;;;;;;;;;;5037685;28;20287;-56
2023/04/08 06:30:43;;;;;;;158.48;10.27;;;;;;;;;;5038588;28;20032;-55
2023/04/08 06:33:08;;;;;;;171.27;13.10;;;;;;;;;;5040950;28;20028;-55
2023/04/08 06:35:33;;;;;;;169.88;12.05;;;;;;;;;;5038826;28;20029;-54
2023/04/08 06:37:59;;;;;;;198.00;12.90;;;;;;;;;;5035939;28;20031;-55
2023/04/08 06:40:24;;;;;;;163.52;12.10;;;;;;;;;;5035169;28;20260;-54
2023/04/08 06:42:49;;;;;;;162.18;12.35;;;;;;;;;;5038076;28;20024;-55
2023/04/08 06:45:14;;;;;;;179.35;12.60;;;;;;;;;;5038111;28;20115;-55
2023/04/08 06:47:40;;;;;;;211.48;13.52;;;;;;;;;;5038784;28;20092;-57
2023/04/08 06:50:05;;;;;;;168.40;12.70;;;;;;;;;;5037383;28;20158;-56
2023/04/08 06:52:30;;;;;;;160.65;11.30;;;;;;;;;;5037166;28;20248;-55
2023/04/08 06:54:55;;;;;;;209.50;13.80;;;;;;;;;;5037765;28;20083;-56
2023/04/08 06:57:21;;;;;;;184.85;11.85;;;;;;;;;;5037347;28;20276;-54
2023/04/08 06:59:46;;;;;;;172.07;11.85;;;;;;;;;;5036544;28;20075;-56
2023/04/08 07:02:11;;;;;;;132.93;11.30;;;;;;;;;;5028103;28;20028;-57
2023/04/08 07:04:36;;;;;;;213.10;8.80;;;;;;;;;;5033526;28;20027;-56
2023/04/08 07:07:02;;;;;;;157.85;8.60;;;;;;;;;;5033244;28;20318;-57
2023/04/08 07:09:27;;;;;;;125.07;7.73;;;;;;;;;;5038282;28;20027;-58
2023/04/08 07:11:52;;;;;;;131.30;10.32;;;;;;;;;;5040754;28;20267;-57
2023/04/08 07:14:18;;;;;;;148.30;9.07;;;;;;;;;;5038130;28;20029;-55
2023/04/08 07:16:43;;;;;;;153.05;9.95;;;;;;;;;;5036854;28;20128;-56
2023/04/08 07:19:09;;;;;;;149.43;10.85;;;;;;;;;;5039327;28;20037;-56
2023/04/08 07:21:34;;;;;;;193.68;11.85;;;;;;;;;;5037208;28;20507;-57
2023/04/08 07:24:00;;;;;;;145.75;11.23;;;;;;;;;;5038654;28;20063;-54
2023/04/08 07:26:27;;;;;;;178.50;10.40;;;;;;;;;;5040101;28;20173;-55
2023/04/08 07:28:52;;;;;;;144.30;10.57;;;;;;;;;;5037163;28;20286;-55
2023/04/08 07:31:17;;;;;;;205.82;12.60;;;;;;;;;;5038110;28;20033;-54
2023/04/08 07:33:43;;;;;;;154.27;10.15;;;;;;;;;;5040522;28;20021;-57
2023/04/08 07:36:09;;;;;;;240.57;12.52;;;;;;;;;;5039656;28;20117;-58
2023/04/08 07:38:34;;;;;;;136.75;8.63;;;;;;;;;;5037710;28;20036;-57
2023/04/08 07:41:00;;;;;;;130.23;7.40;;;;;;;;;;5038729;28;20025;-58
2023/04/08 07:43:25;;;;;;;139.05;9.63;;;;;;;;;;5040854;28;20067;-54
2023/04/08 07:45:50;;;;;;;194.48;11.45;;;;;;;;;;5038709;28;20065;-55
2023/04/08 07:48:16;;;;;;;143.25;9.68;;;;;;;;;;5038743;28;20626;-56
2023/04/08 07:50:41;;;;;;;103.78;8.02;;;;;;;;;;5038516;28;20738;-55
2023/04/08 07:53:07;;;;;;;147.37;9.93;;;;;;;;;;5040117;28;20163;-55
2023/04/08 07:55:33;;;;;;;138.15;7.35;;;;;;;;;;5038342;28;20685;-56
2023/04/08 07:57:58;;;;;;;158.40;10.73;;;;;;;;;;5039720;28;20067;-54
2023/04/08 08:00:23;;;;;;;130.57;8.82;;;;;;;;;;5038390;28;20155;-57
2023/04/08 08:02:49;;;;;;;151.10;9.50;;;;;;;;;;5039433;28;20021;-55
2023/04/08 08:05:14;;;;;;;160.90;9.02;;;;;;;;;;5040083;28;20068;-57
2023/04/08 08:07:39;;;;;;;123.97;9.55;;;;;;;;;;5039462;28;20030;-54
2023/04/08 08:10:05;;;;;;;117.68;8.85;;;;;;;;;;5038849;28;20160;-57
2023/04/08 08:12:30;;;;;;;163.60;9.40;;;;;;;;;;5040310;28;20112;-58
2023/04/08 08:14:57;;;;;;;147.57;9.40;;;;;;;;;;5041823;28;20159;-56
2023/04/08 08:17:23;;;;;;;152.90;9.65;;;;;;;;;;5035263;28;20270;-54
2023/04/08 08:19:48;;;;;;;107.35;8.73;;;;;;;;;;5038218;28;20033;-55
2023/04/08 08:22:14;;;;;;;136.45;9.95;;;;;;;;;;5038750;28;20044;-55
2023/04/08 08:24:39;;;;;;;129.30;9.82;;;;;;;;;;5038403;28;20138;-54
2023/04/08 08:27:05;;;;;;;151.50;10.00;;;;;;;;;;5037731;28;20034;-56
2023/04/08 08:29:30;;;;;;;127.65;9.85;;;;;;;;;;5039830;28;20267;-56
2023/04/08 08:31:55;;;;;;;141.88;8.00;;;;;;;;;;5036271;28;20061;-57
2023/04/08 08:34:21;;;;;;;197.50;11.67;;;;;;;;;;5036828;28;20036;-57
2023/04/08 08:36:46;;;;;;;131.83;9.83;;;;;;;;;;5036837;28;20386;-58
2023/04/08 08:39:11;;;;;;;113.93;9.48;;;;;;;;;;5035945;28;20343;-55
2023/04/08 08:41:36;;;;;;;133.90;10.30;;;;;;;;;;5038234;28;20039;-57
2023/04/08 08:44:04;;;;;;;167.20;11.32;;;;;;;;;;5038681;28;20121;-58
2023/04/08 08:46:29;;;;;;;159.25;10.43;;;;;;;;;;5039326;28;20032;-55
2023/04/08 08:48:55;;;;;;;176.35;10.18;;;;;;;;;;5052476;28;20071;-58
2023/04/08 08:51:20;;;;;;;146.85;10.07;;;;;;;;;;5037180;28;20068;-54
2023/04/08 08:53:46;;;;;;;156.35;9.82;;;;;;;;;;5037383;28;20016;-57
2023/04/08 08:56:11;;;;;;;184.93;8.60;;;;;;;;;;5039085;28;20055;-57
2023/04/08 08:58:37;;;;;;;180.00;10.90;;;;;;;;;;5028123;28;20267;-53
2023/04/08 09:01:23;;;;;;;128.10;10.23;;;;;;;;;;5036073;28;20424;-56
2023/04/08 09:04:05;;;;;;;228.50;11.98;;;;;;;;;;5034135;28;20556;-55
2023/04/08 09:06:30;;;;;;;196.77;8.35;;;;;;;;;;5034287;28;20118;-55
2023/04/08 09:08:55;;;;;;;234.55;10.50;;;;;;;;;;5035428;28;20127;-55
2023/04/08 09:11:21;;;;;;;125.20;9.73;;;;;;;;;;5034781;28;20436;-56
2023/04/08 09:13:46;;;;;;;152.15;9.05;;;;;;;;;;5032882;28;20932;-57
2023/04/08 09:16:16;;;;;;;210.68;12.13;;;;;;;;;;5033232;28;20120;-57
2023/04/08 09:18:44;;;;;;;143.20;8.70;;;;;;;;;;5034959;28;20076;-55
2023/04/08 09:21:10;;;;;;;176.35;8.55;;;;;;;;;;5037195;28;20032;-55
2023/04/08 09:23:40;;;;;;;149.82;9.23;;;;;;;;;;5036059;28;20055;-57
2023/04/08 09:26:15;;;;;;;195.27;10.70;;;;;;;;;;5035862;28;20040;-53
2023/04/08 09:28:41;;;;;;;222.95;10.93;;;;;;;;;;5032056;28;20508;-57
2023/04/08 09:31:21;;;;;;;216.55;10.55;;;;;;;;;;5034964;28;20068;-54
2023/04/08 09:33:47;;;;;;;128.68;8.90;;;;;;;;;;5036001;28;20023;-54
2023/04/08 09:36:14;;;;;;;223.00;11.20;;;;;;;;;;5034554;28;20511;-55
2023/04/08 09:38:39;;;;;;;141.95;8.55;;;;;;;;;;5034355;28;20037;-54
2023/04/08 09:41:06;;;;;;;114.63;7.78;;;;;;;;;;5019896;28;20075;-57
2023/04/08 09:43:35;;;;;;;181.20;9.85;;;;;;;;;;5032774;28;20021;-56
2023/04/08 09:46:03;;;;;;;120.00;8.27;;;;;;;;;;5033959;28;20037;-57
2023/04/08 09:48:29;;;;;;;143.68;8.35;;;;;;;;;;5034576;28;20023;-54
2023/04/08 09:50:56;;;;;;;144.85;8.68;;;;;;;;;;5018393;28;20033;-55
2023/04/08 09:53:42;;;;;;;127.85;8.32;;;;;;;;;;5055842;28;20122;-58
2023/04/08 09:56:09;;;;;;;232.43;11.23;;;;;;;;;;5039070;28;20052;-58
2023/04/08 09:58:45;;;;;;;233.90;10.65;;;;;;;;;;5036731;28;20017;-57
2023/04/08 10:01:12;;;;;;;126.55;8.35;;;;;;;;;;5037261;28;20643;-58
2023/04/08 10:03:48;;;;;;;162.50;9.30;;;;;;;;;;5038552;28;20094;-55
2023/04/08 10:06:14;;;;;;;291.92;13.07;;;;;;;;;;5051697;28;20652;-59
2023/04/08 10:08:40;;;;;;;220.82;10.38;;;;;;;;;;5038579;28;20032;-58
2023/04/08 10:11:06;;;;;;;252.98;10.43;;;;;;;;;;5038229;28;20102;-58
2023/04/08 10:13:32;;;;;;;221.52;9.35;;;;;;;;;;5036466;28;20025;-57
2023/04/08 10:16:23;;;;;;;210.35;10.63;;;;;;;;;;5039983;28;20037;-57
2023/04/08 10:18:51;;;;;;;147.13;8.55;;;;;;;;;;5041888;28;20028;-54
2023/04/08 10:21:38;;;;;;;181.93;9.25;;;;;;;;;;5053744;28;20495;-56
2023/04/08 10:24:10;;;;;;;153.75;8.15;;;;;;;;;;5039722;28;20036;-56
2023/04/08 10:26:37;;;;;;;164.10;8.45;;;;;;;;;;5037248;28;20062;-55
2023/04/08 10:29:17;;;;;;;182.18;9.05;;;;;;;;;;5034271;28;20032;-54
2023/04/08 10:31:46;;;;;;;192.88;9.52;;;;;;;;;;5038503;28;20116;-57
2023/04/08 10:34:16;;;;;;;210.05;9.48;;;;;;;;;;5053333;28;20013;-57
2023/04/08 10:36:41;;;;;;;173.70;8.23;;;;;;;;;;5037112;28;20083;-57
2023/04/08 10:39:06;;;;;;;180.98;8.98;;;;;;;;;;5037566;28;20025;-55
2023/04/08 10:41:32;;;;;;;227.50;10.23;;;;;;;;;;5037151;28;20814;-56
2023/04/08 10:43:57;;;;;;;178.30;8.93;;;;;;;;;;5034641;28;20679;-55
2023/04/08 10:46:22;;;;;;;212.53;9.97;;;;;;;;;;5037393;28;20867;-54
2023/04/08 10:48:58;;;;;;;216.63;9.85;;;;;;;;;;5040668;28;20305;-53
2023/04/08 10:51:23;;;;;;;107.13;7.13;;;;;;;;;;5038721;28;20499;-57
2023/04/08 10:53:48;;;;;;;167.02;9.00;;;;;;;;;;5041705;28;20025;-57
2023/04/08 10:56:16;;;;;;;228.65;10.63;;;;;;;;;;5036275;28;20534;-57
2023/04/08 10:58:51;;;;;;;213.63;10.65;;;;;;;;;;5036088;28;20052;-59
2023/04/08 11:01:17;;;;;;;139.98;7.80;;;;;;;;;;5036099;28;20090;-56
2023/04/08 11:03:42;;;;;;;131.88;7.15;;;;;;;;;;5038565;28;20025;-55
2023/04/08 11:06:08;;;;;;;202.48;9.77;;;;;;;;;;5038289;28;20033;-54
2023/04/08 11:08:34;;;;;;;173.70;9.02;;;;;;;;;;5036769;28;20405;-53
2023/04/08 11:11:04;;;;;;;158.30;8.25;;;;;;;;;;5036427;28;20029;-56
2023/04/08 11:13:29;;;;;;;132.55;7.75;;;;;;;;;;5034132;28;20056;-53
2023/04/08 11:15:55;;;;;;;132.45;8.23;;;;;;;;;;5036678;28;20129;-53
2023/04/08 11:18:21;;;;;;;156.90;8.75;;;;;;;;;;5036577;28;20055;-55
2023/04/08 11:20:49;;;;;;;114.72;8.32;;;;;;;;;;5037119;28;20049;-52
2023/04/08 11:23:15;;;;;;;183.50;9.93;;;;;;;;;;5039265;28;20027;-55
2023/04/08 11:25:44;;;;;;;134.85;8.13;;;;;;;;;;5038389;28;20033;-54
2023/04/08 11:28:10;;;;;;;154.15;8.98;;;;;;;;;;5034180;28;20067;-55
2023/04/08 11:30:37;;;;;;;173.50;9.30;;;;;;;;;;5035504;28;20040;-54
2023/04/08 11:33:02;;;;;;;127.45;7.75;;;;;;;;;;5037191;28;20144;-52
2023/04/08 11:35:28;;;;;;;147.52;9.15;;;;;;;;;;5039040;28;20144;-51
2023/04/08 11:37:54;;;;;;;114.55;7.75;;;;;;;;;;5037543;28;20053;-55
2023/04/08 11:40:20;;;;;;;108.15;8.20;;;;;;;;;;5036812;28;20017;-53
2023/04/08 11:42:46;;;;;;;181.40;8.45;;;;;;;;;;5036529;28;20033;-56
2023/04/08 11:45:12;;;;;;;118.82;7.38;;;;;;;;;;5035552;28;20044;-54
2023/04/08 11:47:37;;;;;;;122.88;8.07;;;;;;;;;;5034377;28;20507;-56
2023/04/08 11:50:04;;;;;;;127.50;8.15;;;;;;;;;;5037063;28;20025;-57
2023/04/08 11:52:48;;;;;;;111.72;7.50;;;;;;;;;;5036711;28;20508;-53
2023/04/08 11:55:24;;;;;;;174.55;8.77;;;;;;;;;;5038313;28;20028;-55
2023/04/08 11:57:50;;;;;;;126.95;7.88;;;;;;;;;;5035523;28;20013;-55
2023/04/08 12:00:16;;;;;;;136.75;8.88;;;;;;;;;;5034347;28;20095;-56
2023/04/08 12:02:41;;;;;;;120.25;7.80;;;;;;;;;;5036901;28;20727;-55
2023/04/08 12:05:07;;;;;;;175.90;9.90;;;;;;;;;;5034812;28;20030;-56
2023/04/08 12:07:32;;;;;;;114.75;8.60;;;;;;;;;;5034326;28;20279;-53
2023/04/08 12:09:57;;;;;;;159.20;9.83;;;;;;;;;;5038415;28;20568;-56
2023/04/08 12:12:23;;;;;;;161.48;9.48;;;;;;;;;;5035644;28;20717;-55
2023/04/08 12:14:48;;;;;;;155.13;9.32;;;;;;;;;;5035218;28;20443;-53
2023/04/08 12:17:13;;;;;;;187.02;10.18;;;;;;;;;;5034609;28;20063;-57
2023/04/08 12:19:39;;;;;;;197.23;10.13;;;;;;;;;;5038350;28;20021;-54
2023/04/08 12:22:04;;;;;;;161.27;8.83;;;;;;;;;;5037214;28;20790;-56
2023/04/08 12:24:29;;;;;;;193.38;9.52;;;;;;;;;;5037999;28;20419;-54
2023/04/08 12:26:55;;;;;;;201.88;10.32;;;;;;;;;;5033899;28;20033;-55
2023/04/08 12:29:20;;;;;;;213.00;10.68;;;;;;;;;;5032630;28;20020;-54
2023/04/08 12:31:46;;;;;;;241.73;11.75;;;;;;;;;;5037751;28;20029;-54
2023/04/08 12:34:11;;;;;;;203.43;10.50;;;;;;;;;;5035457;28;20013;-55
2023/04/08 12:36:37;;;;;;;245.48;12.35;;;;;;;;;;5033023;28;20029;-58
2023/04/08 12:39:02;;;;;;;252.93;11.88;;;;;;;;;;5034889;28;20075;-56
2023/04/08 12:41:27;;;;;;;196.13;10.02;;;;;;;;;;5035529;28;20039;-55
2023/04/08 12:43:53;;;;;;;186.17;9.63;;;;;;;;;;5034911;28;21002;-55
2023/04/08 12:46:18;;;;;;;250.90;11.53;;;;;;;;;;5035635;28;20674;-54
2023/04/08 12:48:44;;;;;;;159.45;8.68;;;;;;;;;;5035138;28;20365;-53
2023/04/08 12:51:09;;;;;;;174.45;9.27;;;;;;;;;;5034194;28;20063;-55
2023/04/08 12:53:34;;;;;;;133.85;8.18;;;;;;;;;;5036186;28;20124;-55
2023/04/08 12:56:00;;;;;;;143.63;8.57;;;;;;;;;;5036258;28;20102;-55
2023/04/08 12:58:25;;;;;;;130.00;7.93;;;;;;;;;;5036578;28;20446;-59
2023/04/08 13:00:51;;;;;;;120.75;7.85;;;;;;;;;;5031882;28;20548;-60
2023/04/08 13:03:16;;;;;;;114.13;6.63;;;;;;;;;;5036702;28;20097;-57
2023/04/08 13:05:42;;;;;;;137.38;8.05;;;;;;;;;;5037556;28;20026;-58
2023/04/08 13:08:07;;;;;;;132.50;7.57;;;;;;;;;;5035799;28;20123;-58
2023/04/08 13:10:32;;;;;;;167.50;7.93;;;;;;;;;;5034793;28;20866;-56
2023/04/08 13:12:57;;;;;;;127.47;5.85;;;;;;;;;;5032695;28;20246;-58
2023/04/08 13:15:23;;;;;;;111.88;6.82;;;;;;;;;;5031846;28;20033;-58
2023/04/08 13:17:48;;;;;;;183.03;8.67;;;;;;;;;;5034097;28;20021;-57
2023/04/08 13:20:13;;;;;;;198.75;9.05;;;;;;;;;;5034143;28;20266;-57
2023/04/08 13:22:40;;;;;;;184.10;8.35;;;;;;;;;;5035771;28;20023;-54
2023/04/08 13:25:06;;;;;;;196.13;8.77;;;;;;;;;;5034390;28;20114;-56
2023/04/08 13:27:31;;;;;;;243.15;10.15;;;;;;;;;;5031546;28;20136;-55
2023/04/08 13:29:56;;;;;;;185.05;8.40;;;;;;;;;;5034487;28;20024;-55
2023/04/08 13:32:21;;;;;;;199.37;8.73;;;;;;;;;;5035071;28;20120;-55
2023/04/08 13:34:46;;;;;;;181.63;8.38;;;;;;;;;;5037444;28;20251;-61
2023/04/08 13:37:12;;;;;;;236.23;8.60;;;;;;;;;;5034063;28;20034;-55
2023/04/08 13:39:37;;;;;;;165.15;7.65;;;;;;;;;;5037263;28;20274;-60
2023/04/08 13:42:02;;;;;;;245.52;10.25;;;;;;;;;;5034569;28;20037;-57
2023/04/08 13:44:28;;;;;;;155.65;7.85;;;;;;;;;;5034022;28;20039;-59
2023/04/08 13:46:53;;;;;;;174.23;8.13;;;;;;;;;;5034619;28;20595;-57
2023/04/08 13:49:19;;;;;;;149.20;6.97;;;;;;;;;;5034754;28;20025;-57
2023/04/08 13:51:44;;;;;;;217.85;9.25;;;;;;;;;;5023924;28;20275;-55
2023/04/08 13:54:10;;;;;;;152.40;7.53;;;;;;;;;;5031700;28;20045;-57
2023/04/08 13:56:35;;;;;;;123.38;6.35;;;;;;;;;;5033057;28;20029;-56
2023/04/08 13:59:00;;;;;;;172.63;7.57;;;;;;;;;;5035974;28;20043;-54
2023/04/08 14:01:26;;;;;;;112.28;5.85;;;;;;;;;;5035318;28;20344;-56
2023/04/08 14:03:51;;;;;;;123.78;6.30;;;;;;;;;;5036155;28;20109;-57
2023/04/08 14:06:16;;;;;;;205.88;8.68;;;;;;;;;;5033644;28;20440;-54